Time;durP1;ratioP1;P1;durP2;ratioP2;P2;SDS_P1;SDS_P2;PMS_P1;PMS_P2;Temp;Humidity;BMP_temperature;BMP_pressure;BME280_temperature;BME280_humidity;BME280_pressure;Samples;Min_cycle;Max_cycle;Signal;HPM_P1;HPM_P2
2022/01/16 00:00:06;;;;;;;27.90;8.40;;;;;;;-1.86;100.00;100375.48;103503;1302;24388;-29
2022/01/16 00:04:06;;;;;;;17.80;8.20;;;;;;;-1.93;100.00;100370.77;103548;1302;22515;-26
2022/01/16 00:05:17;;;;;;;28.50;9.40;;;;;;;-1.99;100.00;100366.95;103449;1302;22499;-29
2022/01/16 00:07:43;;;;;;;27.40;9.70;;;;;;;-2.04;100.00;100369.90;103539;1302;24164;-26
2022/01/16 00:10:10;;;;;;;40.50;11.60;;;;;;;-2.08;100.00;100379.05;103561;1302;24296;-27
2022/01/16 00:12:36;;;;;;;24.40;8.10;;;;;;;-2.05;100.00;100378.87;103543;1302;24245;-25
2022/01/16 00:15:03;;;;;;;28.40;9.70;;;;;;;-2.03;100.00;100360.34;103490;1302;24332;-29
2022/01/16 00:17:34;;;;;;;33.00;11.30;;;;;;;-2.02;100.00;100345.88;103463;1302;22518;-28
2022/01/16 00:20:01;;;;;;;30.50;10.60;;;;;;;-2.04;100.00;100348.29;103560;1300;24180;-27
2022/01/16 00:22:32;;;;;;;26.20;11.60;;;;;;;-2.02;100.00;100350.59;103638;1300;24195;-25
2022/01/16 00:25:02;;;;;;;21.30;8.80;;;;;;;-1.97;100.00;100360.46;103613;1300;22527;-28
2022/01/16 00:27:28;;;;;;;25.10;9.20;;;;;;;-1.99;100.00;100355.86;103571;1300;24249;-26
2022/01/16 00:29:54;;;;;;;25.50;10.70;;;;;;;-1.96;100.00;100336.36;103661;1300;24297;-25
2022/01/16 00:32:20;;;;;;;32.60;12.20;;;;;;;-1.98;100.00;100315.63;103672;1300;24477;-30
2022/01/16 00:34:45;;;;;;;17.40;8.20;;;;;;;-1.99;100.00;100323.73;103619;1300;24289;-27
2022/01/16 00:37:13;;;;;;;18.50;8.40;;;;;;;-1.96;100.00;100305.66;103618;1299;23997;-25
2022/01/16 00:39:39;;;;;;;18.70;8.80;;;;;;;-1.92;100.00;100281.88;103627;1299;24287;-28
2022/01/16 00:42:05;;;;;;;25.00;11.40;;;;;;;-1.94;100.00;100291.33;103674;1300;24207;-31
2022/01/16 00:44:31;;;;;;;21.90;9.80;;;;;;;-2.01;100.00;100307.22;103636;1300;24367;-25
2022/01/16 00:46:57;;;;;;;27.20;11.60;;;;;;;-2.01;100.00;100319.33;103619;1300;22515;-25
2022/01/16 00:49:23;;;;;;;35.10;11.20;;;;;;;-2.01;100.00;100327.04;103608;1300;22759;-31
2022/01/16 00:51:49;;;;;;;42.00;11.20;;;;;;;-2.01;100.00;100342.83;103703;1300;24335;-27
2022/01/16 00:54:14;;;;;;;27.80;8.70;;;;;;;-1.98;100.00;100349.49;103566;1298;24275;-29
2022/01/16 00:56:40;;;;;;;34.30;14.50;;;;;;;-1.93;100.00;100346.94;103615;1300;24392;-26
2022/01/16 00:59:06;;;;;;;34.50;12.50;;;;;;;-1.88;100.00;100330.11;103581;1300;24215;-26
2022/01/16 01:01:32;;;;;;;27.30;11.30;;;;;;;-1.87;100.00;100300.91;103605;1300;24304;-28
2022/01/16 01:03:58;;;;;;;62.60;16.40;;;;;;;-1.84;100.00;100303.39;103609;1300;24764;-26
2022/01/16 01:06:24;;;;;;;59.40;14.30;;;;;;;-1.83;100.00;100306.84;103633;1300;22514;-26
2022/01/16 01:08:51;;;;;;;41.20;14.20;;;;;;;-1.81;100.00;100305.82;103627;1300;24250;-26
2022/01/16 01:11:23;;;;;;;45.90;13.20;;;;;;;-1.84;100.00;100298.63;103603;1300;24227;-25
2022/01/16 01:16:18;;;;;;;37.00;14.20;;;;;;;-1.80;100.00;100312.61;103535;1300;24225;-29
2022/01/16 01:18:44;;;;;;;38.00;14.10;;;;;;;-1.79;100.00;100281.27;103657;1300;24170;-26
2022/01/16 01:21:16;;;;;;;32.40;12.20;;;;;;;-1.77;100.00;100268.55;103608;1300;24348;-26
2022/01/16 01:23:42;;;;;;;46.50;12.90;;;;;;;-1.79;100.00;100282.74;103656;1300;24329;-26
2022/01/16 01:26:08;;;;;;;33.40;11.70;;;;;;;-1.81;100.00;100280.54;103571;1300;24742;-29
2022/01/16 01:28:34;;;;;;;28.30;12.20;;;;;;;-1.94;100.00;100291.89;103589;1300;24196;-29
2022/01/16 01:31:00;;;;;;;26.00;11.00;;;;;;;-2.00;100.00;100310.14;103632;1300;24214;-27
2022/01/16 01:33:27;;;;;;;26.90;10.30;;;;;;;-1.95;100.00;100289.30;103610;1300;24344;-29
2022/01/16 01:35:53;;;;;;;27.20;9.50;;;;;;;-1.94;100.00;100292.57;103613;1300;24191;-29
2022/01/16 01:38:20;;;;;;;29.10;10.50;;;;;;;-1.95;100.00;100297.88;103628;1300;24206;-26
2022/01/16 01:40:48;;;;;;;41.10;11.80;;;;;;;-1.92;100.00;100212.25;103638;1300;22646;-26
2022/01/16 01:53:13;;;;;;;24.20;10.60;;;;;;;-2.22;100.00;100173.77;103573;1300;22615;-28
2022/01/16 01:55:42;;;;;;;25.20;10.10;;;;;;;-2.10;100.00;100215.69;103496;1303;24174;-31
2022/01/16 01:58:09;;;;;;;26.00;9.20;;;;;;;-2.18;100.00;100211.92;103520;1300;24257;-29
2022/01/16 02:00:36;;;;;;;29.20;12.00;;;;;;;-2.15;100.00;100219.47;103582;1300;24300;-29
2022/01/16 02:03:14;;;;;;;20.00;9.70;;;;;;;-2.06;100.00;100211.71;103637;1300;24237;-31
2022/01/16 02:05:42;;;;;;;22.30;9.90;;;;;;;-2.06;100.00;100212.43;103557;1300;22520;-30
2022/01/16 02:08:08;;;;;;;44.40;12.70;;;;;;;-1.99;100.00;100217.04;103653;1300;24221;-25
2022/01/16 02:10:35;;;;;;;36.80;10.60;;;;;;;-2.05;100.00;100236.08;103571;1300;24366;-29
2022/01/16 02:13:04;;;;;;;28.70;10.90;;;;;;;-2.02;100.00;100226.02;103581;1300;24332;-26
2022/01/16 02:27:52;;;;;;;38.70;13.80;;;;;;;-2.01;100.00;100194.92;103626;1300;24192;-26
2022/01/16 02:31:02;;;;;;;23.40;10.20;;;;;;;-2.10;100.00;100228.80;103663;1300;24288;-28
2022/01/16 02:35:58;;;;;;;20.10;9.30;;;;;;;-2.00;100.00;100246.09;103579;1300;22678;-25
2022/01/16 02:38:25;;;;;;;35.90;9.70;;;;;;;-2.08;100.00;100240.80;103634;1300;24313;-26
2022/01/16 02:40:53;;;;;;;17.70;8.60;;;;;;;-2.07;100.00;100236.69;103607;1297;24240;-25
2022/01/16 02:43:28;;;;;;;19.90;8.20;;;;;;;-2.05;100.00;100237.66;103640;1300;24189;-26
2022/01/16 02:46:09;;;;;;;26.40;9.50;;;;;;;-1.99;100.00;100237.25;103567;1300;24224;-25
2022/01/16 02:48:35;;;;;;;29.80;7.90;;;;;;;-1.93;100.00;100227.58;103572;1300;24270;-29
2022/01/16 02:51:01;;;;;;;26.50;10.60;;;;;;;-1.98;100.00;100215.92;103639;1300;24456;-25
2022/01/16 02:53:27;;;;;;;30.80;11.20;;;;;;;-2.11;100.00;100208.50;103631;1300;24310;-25
2022/01/16 02:55:53;;;;;;;26.30;9.10;;;;;;;-2.09;100.00;100208.58;103583;1300;24302;-31
2022/01/16 02:58:19;;;;;;;24.70;7.20;;;;;;;-2.07;100.00;100216.00;103779;1300;24169;-27
2022/01/16 03:00:45;;;;;;;25.00;9.70;;;;;;;-2.01;100.00;100212.14;103589;1300;24428;-32
2022/01/16 03:03:10;;;;;;;19.50;8.70;;;;;;;-2.00;100.00;100212.23;103632;1300;24193;-28
2022/01/16 03:05:36;;;;;;;25.00;9.60;;;;;;;-1.97;100.00;100210.98;103450;1300;24233;-26
2022/01/16 03:08:04;;;;;;;36.80;10.10;;;;;;;-1.91;100.00;100213.91;103591;1299;24279;-29
2022/01/16 03:10:48;;;;;;;30.40;10.10;;;;;;;-1.86;100.00;100208.53;103636;1300;24229;-28
2022/01/16 03:13:15;;;;;;;20.30;8.50;;;;;;;-1.94;100.00;100206.05;103610;1300;24225;-25
2022/01/16 03:15:41;;;;;;;26.00;8.20;;;;;;;-2.01;100.00;100204.95;103556;1300;22520;-28
2022/01/16 03:23:04;;;;;;;21.80;9.00;;;;;;;-2.19;100.00;100181.27;103522;1300;24227;-31
2022/01/16 03:25:30;;;;;;;30.10;11.00;;;;;;;-2.27;100.00;100168.12;103586;1300;24201;-25
2022/01/16 03:27:56;;;;;;;33.50;10.70;;;;;;;-2.31;100.00;100170.84;103537;1301;24248;-29
2022/01/16 03:30:22;;;;;;;36.90;8.90;;;;;;;-2.39;100.00;100165.20;103636;1300;24244;-25
2022/01/16 03:32:48;;;;;;;24.00;8.00;;;;;;;-2.45;100.00;100164.31;103493;1300;24243;-26
2022/01/16 03:35:13;;;;;;;31.40;9.00;;;;;;;-2.46;100.00;100157.20;103554;1300;24179;-26
2022/01/16 03:37:40;;;;;;;20.60;8.20;;;;;;;-2.51;100.00;100154.00;103554;1300;24332;-27
2022/01/16 03:40:10;;;;;;;40.60;11.70;;;;;;;-2.50;100.00;100143.58;103565;1302;24200;-28
2022/01/16 03:42:37;;;;;;;19.30;8.40;;;;;;;-2.48;100.00;100139.64;103520;1302;24355;-25
2022/01/16 03:45:05;;;;;;;17.20;6.90;;;;;;;-2.49;100.00;100135.13;103538;1302;24277;-29
2022/01/16 03:47:30;;;;;;;17.00;7.80;;;;;;;-2.40;100.00;100131.58;103609;1300;24215;-26
2022/01/16 03:49:56;;;;;;;22.40;8.80;;;;;;;-2.34;100.00;100126.31;103519;1302;24374;-25
2022/01/16 03:52:22;;;;;;;22.20;10.80;;;;;;;-2.33;100.00;100120.10;103579;1300;24261;-25
2022/01/16 03:54:48;;;;;;;22.20;7.00;;;;;;;-2.36;100.00;100115.71;103496;1300;24294;-24
2022/01/16 03:57:14;;;;;;;24.40;9.40;;;;;;;-2.34;100.00;100114.55;103472;1302;24303;-26
2022/01/16 03:59:40;;;;;;;25.80;11.10;;;;;;;-2.37;100.00;100108.41;103435;1301;24212;-26
2022/01/16 04:02:05;;;;;;;42.60;10.50;;;;;;;-2.40;100.00;100102.31;103453;1301;24139;-26
2022/01/16 04:04:31;;;;;;;50.90;12.30;;;;;;;-2.43;100.00;100101.44;103540;1300;24352;-26
2022/01/16 04:06:59;;;;;;;31.80;9.80;;;;;;;-2.47;100.00;100102.60;103498;1300;23829;-29
2022/01/16 04:09:26;;;;;;;28.00;11.10;;;;;;;-2.52;100.00;100097.95;103221;1300;598946;-25
2022/01/16 04:11:55;;;;;;;18.10;6.20;;;;;;;-2.59;100.00;100096.47;103540;1300;24195;-30
2022/01/16 04:14:24;;;;;;;23.30;8.70;;;;;;;-2.61;100.00;100092.21;103460;1302;24147;-31
2022/01/16 04:16:52;;;;;;;17.20;8.90;;;;;;;-2.58;100.00;100095.20;103509;1300;24185;-28
2022/01/16 04:19:18;;;;;;;30.40;8.60;;;;;;;-2.55;100.00;100091.48;103581;1300;22810;-28
2022/01/16 04:21:44;;;;;;;30.20;11.00;;;;;;;-2.60;100.00;100079.37;103600;1300;24220;-29
2022/01/16 04:24:10;;;;;;;29.80;11.50;;;;;;;-2.63;100.00;100074.79;103591;1299;22803;-27
2022/01/16 04:26:37;;;;;;;19.20;7.40;;;;;;;-2.65;100.00;100079.70;103663;1300;22525;-29
2022/01/16 04:29:03;;;;;;;31.70;10.70;;;;;;;-2.61;100.00;100079.92;103611;1300;24122;-31
2022/01/16 04:31:29;;;;;;;23.00;11.00;;;;;;;-2.53;100.00;100079.30;103486;1300;24236;-24
2022/01/16 04:33:55;;;;;;;26.60;10.20;;;;;;;-2.50;100.00;100076.30;103611;1300;24254;-25
2022/01/16 04:36:21;;;;;;;55.00;10.10;;;;;;;-2.51;100.00;100078.09;103574;1300;24256;-29
2022/01/16 04:38:49;;;;;;;26.80;8.60;;;;;;;-2.59;100.00;100069.83;103637;1300;24310;-29
2022/01/16 04:46:15;;;;;;;26.80;10.10;;;;;;;-2.66;100.00;100052.38;103592;1299;24214;-29
2022/01/16 04:48:41;;;;;;;29.50;9.70;;;;;;;-2.62;100.00;100050.04;103649;1300;24372;-29
2022/01/16 04:51:07;;;;;;;39.70;13.00;;;;;;;-2.66;100.00;100048.17;103521;1300;22635;-25
2022/01/16 04:53:33;;;;;;;36.10;11.70;;;;;;;-2.62;100.00;100046.20;103645;1300;24218;-25
2022/01/16 04:55:59;;;;;;;30.60;11.80;;;;;;;-2.59;100.00;100041.77;103607;1300;24328;-29
2022/01/16 04:58:25;;;;;;;30.70;11.80;;;;;;;-2.60;100.00;100042.73;103533;1300;22628;-27
2022/01/16 05:00:51;;;;;;;38.30;14.00;;;;;;;-2.51;100.00;100042.54;103582;1300;24256;-41
2022/01/16 05:03:17;;;;;;;35.00;14.50;;;;;;;-2.53;100.00;100034.38;103623;1300;24479;-29
2022/01/16 05:05:42;;;;;;;36.80;13.70;;;;;;;-2.49;100.00;100033.08;103625;1300;24237;-30
2022/01/16 05:08:08;;;;;;;52.80;14.70;;;;;;;-2.42;100.00;100030.19;103649;1300;24230;-27
2022/01/16 05:10:34;;;;;;;43.90;13.40;;;;;;;-2.38;100.00;100032.02;103574;1300;24338;-26
2022/01/16 05:13:26;;;;;;;37.20;14.40;;;;;;;-2.33;100.00;100028.56;103526;1300;24325;-29
2022/01/16 05:18:15;;;;;;;52.20;17.50;;;;;;;-2.32;100.00;100020.73;103568;1299;24347;-25
2022/01/16 05:20:41;;;;;;;52.40;16.50;;;;;;;-2.26;100.00;100018.83;103517;1300;24405;-25
2022/01/16 05:23:07;;;;;;;72.30;17.80;;;;;;;-2.21;100.00;100018.66;103589;1300;24241;-30
2022/01/16 05:25:33;;;;;;;62.20;19.70;;;;;;;-2.15;100.00;100014.58;103509;1300;24448;-28
2022/01/16 05:28:00;;;;;;;72.20;20.70;;;;;;;-2.16;100.00;100006.61;103524;1300;24238;-28
2022/01/16 05:30:27;;;;;;;59.20;16.30;;;;;;;-2.14;100.00;100006.62;103611;1300;24243;-25
2022/01/16 05:32:53;;;;;;;69.60;20.60;;;;;;;-2.12;100.00;100011.41;103614;1300;24173;-25
2022/01/16 05:35:19;;;;;;;81.10;23.20;;;;;;;-2.07;100.00;100001.95;103508;1300;22728;-29
2022/01/16 05:37:44;;;;;;;89.50;23.60;;;;;;;-2.04;100.00;99998.73;103519;1300;24326;-29
2022/01/16 05:40:11;;;;;;;70.40;24.80;;;;;;;-2.04;100.00;99993.84;103549;1300;24381;-26
2022/01/16 05:42:37;;;;;;;84.70;22.70;;;;;;;-2.04;100.00;99994.35;103588;1300;24370;-29
2022/01/16 05:45:03;;;;;;;99.70;24.90;;;;;;;-2.03;100.00;99990.27;103572;1302;22515;-29
2022/01/16 05:47:29;;;;;;;104.40;27.10;;;;;;;-2.03;100.00;99982.02;103500;1300;24230;-31
2022/01/16 05:49:55;;;;;;;93.00;29.30;;;;;;;-2.04;100.00;99977.89;103583;1300;24252;-29
2022/01/16 05:52:21;;;;;;;72.10;22.70;;;;;;;-2.12;100.00;99981.08;103572;1300;24240;-28
2022/01/16 05:54:47;;;;;;;87.80;23.30;;;;;;;-2.08;100.00;99986.05;103487;1300;24190;-29
2022/01/16 05:57:13;;;;;;;92.00;25.80;;;;;;;-2.15;100.00;99979.36;103593;1300;24176;-26
2022/01/16 05:59:39;;;;;;;105.20;28.40;;;;;;;-2.16;100.00;99974.30;103609;1300;24301;-29
2022/01/16 06:02:05;;;;;;;70.80;23.70;;;;;;;-2.16;100.00;99976.23;103520;1302;24199;-29
2022/01/16 06:04:31;;;;;;;86.00;26.30;;;;;;;-2.20;100.00;99970.88;103518;1300;24205;-30
2022/01/16 06:06:57;;;;;;;87.00;25.10;;;;;;;-2.31;100.00;99964.41;103557;1300;24370;-29
2022/01/16 06:09:25;;;;;;;81.00;23.10;;;;;;;-2.38;100.00;99966.76;103536;1300;24339;-30
2022/01/16 06:11:52;;;;;;;88.40;24.10;;;;;;;-2.45;100.00;99961.95;103503;1300;25367;-29
2022/01/16 06:14:18;;;;;;;82.80;25.30;;;;;;;-2.52;100.00;99962.46;103534;1300;24439;-29
2022/01/16 06:16:45;;;;;;;90.10;25.40;;;;;;;-2.60;100.00;99960.32;103516;1300;24293;-26
2022/01/16 06:19:10;;;;;;;81.20;26.40;;;;;;;-2.69;100.00;99957.61;103579;1300;22757;-29
2022/01/16 06:21:36;;;;;;;63.00;21.40;;;;;;;-2.81;100.00;99958.34;103545;1300;24291;-26
2022/01/16 06:24:03;;;;;;;93.20;30.40;;;;;;;-2.88;100.00;99958.98;103533;1300;24655;-29
2022/01/16 06:26:30;;;;;;;87.60;27.20;;;;;;;-2.95;100.00;99955.54;103557;1300;24354;-28
2022/01/16 06:28:57;;;;;;;84.70;26.80;;;;;;;-3.02;100.00;99950.25;103639;1300;24213;-26
2022/01/16 06:31:24;;;;;;;101.50;26.10;;;;;;;-3.06;100.00;99949.61;103562;1300;22517;-26
2022/01/16 06:33:50;;;;;;;66.70;22.50;;;;;;;-3.16;100.00;99937.96;103545;1300;24254;-26
2022/01/16 06:36:16;;;;;;;64.00;19.50;;;;;;;-3.23;100.00;99936.98;103535;1300;24255;-31
2022/01/16 06:38:43;;;;;;;57.60;19.20;;;;;;;-3.24;100.00;99934.44;103596;1300;24225;-26
2022/01/16 06:41:09;;;;;;;71.90;21.60;;;;;;;-3.31;100.00;99930.98;103518;1302;24185;-28
2022/01/16 06:43:36;;;;;;;64.70;21.30;;;;;;;-3.33;100.00;99926.58;103496;1300;24213;-26
2022/01/16 06:46:02;;;;;;;56.20;20.70;;;;;;;-3.36;100.00;99929.38;103570;1300;24186;-29
2022/01/16 06:48:28;;;;;;;67.60;20.40;;;;;;;-3.38;100.00;99917.44;103531;1300;24294;-30
2022/01/16 06:50:54;;;;;;;55.60;19.60;;;;;;;-3.41;100.00;99912.89;103556;1300;24345;-26
2022/01/16 06:53:20;;;;;;;59.40;21.20;;;;;;;-3.44;100.00;99915.52;103570;1300;24200;-26
2022/01/16 06:55:46;;;;;;;67.20;21.90;;;;;;;-3.45;100.00;99915.43;103533;1300;24200;-26
2022/01/16 06:58:12;;;;;;;49.30;19.70;;;;;;;-3.45;100.00;99914.59;103522;1299;24210;-30
2022/01/16 07:00:38;;;;;;;59.40;18.30;;;;;;;-3.48;100.00;99910.35;103514;1300;22703;-26
2022/01/16 07:03:04;;;;;;;68.90;25.20;;;;;;;-3.45;100.00;99908.61;103525;1300;24418;-29
2022/01/16 07:05:30;;;;;;;69.30;24.30;;;;;;;-3.44;100.00;99911.49;103553;1300;24311;-29
2022/01/16 07:07:57;;;;;;;73.00;23.90;;;;;;;-3.46;100.00;99910.09;103611;1300;22727;-26
2022/01/16 07:10:24;;;;;;;63.20;23.20;;;;;;;-3.48;100.00;99905.94;103537;1300;24265;-29
2022/01/16 07:12:50;;;;;;;65.00;23.30;;;;;;;-3.47;100.00;99897.21;103624;1300;22526;-28
2022/01/16 07:15:16;;;;;;;55.50;21.50;;;;;;;-3.47;100.00;99889.80;103550;1300;24255;-29
2022/01/16 07:17:42;;;;;;;53.50;22.80;;;;;;;-3.46;100.00;99891.85;103515;1300;24252;-26
2022/01/16 07:20:08;;;;;;;75.60;23.80;;;;;;;-3.47;100.00;99890.01;103547;1300;24227;-29
2022/01/16 07:22:34;;;;;;;65.00;23.60;;;;;;;-3.40;100.00;99897.48;103581;1300;24314;-27
2022/01/16 07:25:00;;;;;;;59.30;21.30;;;;;;;-3.38;100.00;99899.05;103570;1300;24216;-30
2022/01/16 07:27:26;;;;;;;87.20;29.60;;;;;;;-3.37;100.00;99894.27;103547;1300;24236;-28
2022/01/16 07:29:53;;;;;;;63.90;24.60;;;;;;;-3.37;100.00;99894.42;103602;1302;24272;-30
2022/01/16 07:32:18;;;;;;;63.50;27.10;;;;;;;-3.30;100.00;99894.89;103573;1299;24229;-26
2022/01/16 07:34:44;;;;;;;77.90;24.80;;;;;;;-3.19;100.00;99895.80;103520;1300;24342;-26
2022/01/16 07:37:10;;;;;;;60.50;23.70;;;;;;;-3.17;100.00;99884.94;103532;1300;24332;-29
2022/01/16 07:39:37;;;;;;;76.70;21.80;;;;;;;-3.17;100.00;99894.22;103609;1300;24343;-28
2022/01/16 07:42:04;;;;;;;65.60;22.50;;;;;;;-3.08;100.00;99891.75;103637;1300;24362;-29
2022/01/16 07:44:30;;;;;;;77.30;27.30;;;;;;;-2.97;100.00;99894.86;103548;1300;24398;-29
2022/01/16 07:46:56;;;;;;;77.30;27.30;;;;;;;-2.95;100.00;99896.33;103559;1300;24203;-25
2022/01/16 07:49:22;;;;;;;77.70;29.50;;;;;;;-2.99;100.00;99893.09;103606;1302;22720;-29
2022/01/16 07:51:48;;;;;;;75.60;26.00;;;;;;;-2.95;100.00;99888.95;103478;1300;24304;-31
2022/01/16 07:54:14;;;;;;;86.40;29.80;;;;;;;-2.83;100.00;99887.14;103505;1300;24327;-29
2022/01/16 07:56:40;;;;;;;86.20;27.70;;;;;;;-2.62;100.00;99882.95;103539;1300;24243;-28
2022/01/16 07:59:05;;;;;;;102.00;30.50;;;;;;;-2.49;100.00;99880.55;103535;1300;24474;-26
2022/01/16 08:01:31;;;;;;;85.60;31.90;;;;;;;-2.49;100.00;99883.83;103536;1302;24263;-31
2022/01/16 08:03:57;;;;;;;73.70;24.10;;;;;;;-2.47;100.00;99888.79;103551;1300;24250;-29
2022/01/16 08:06:25;;;;;;;94.60;30.20;;;;;;;-2.34;100.00;99885.34;103540;1300;24342;-29
2022/01/16 08:08:51;;;;;;;63.90;24.70;;;;;;;-2.22;100.00;99881.89;103550;1300;24333;-29
2022/01/16 08:11:17;;;;;;;105.20;29.90;;;;;;;-2.15;100.00;99882.27;103459;1302;24375;-29
2022/01/16 08:13:43;;;;;;;76.60;29.20;;;;;;;-2.15;100.00;99873.35;103555;1300;22525;-27
2022/01/16 08:16:09;;;;;;;75.30;23.90;;;;;;;-2.24;100.00;99869.41;103569;1301;22523;-29
2022/01/16 08:18:35;;;;;;;81.90;27.50;;;;;;;-2.23;100.00;99864.25;103529;1300;24478;-29
2022/01/16 08:21:01;;;;;;;73.80;28.70;;;;;;;-2.26;100.00;99861.80;103578;1300;24246;-29
2022/01/16 08:23:27;;;;;;;108.70;33.20;;;;;;;-2.21;100.00;99855.52;103612;1300;24143;-26
2022/01/16 08:25:54;;;;;;;64.40;27.00;;;;;;;-2.10;100.00;99856.70;103635;1299;24454;-27
2022/01/16 08:28:20;;;;;;;76.40;28.80;;;;;;;-2.16;100.00;99859.70;103638;1300;24173;-26
2022/01/16 08:30:46;;;;;;;79.80;27.20;;;;;;;-2.04;100.00;99856.66;103695;1300;24454;-26
2022/01/16 08:33:12;;;;;;;96.90;30.80;;;;;;;-2.01;100.00;99850.09;103602;1299;24236;-26
2022/01/16 08:35:38;;;;;;;61.60;24.70;;;;;;;-1.91;100.00;99852.55;103545;1299;24212;-29
2022/01/16 08:38:04;;;;;;;54.90;22.10;;;;;;;-1.75;100.00;99851.52;103555;1300;24298;-29
2022/01/16 08:40:30;;;;;;;67.30;25.90;;;;;;;-1.51;100.00;99846.45;103618;1300;24212;-28
2022/01/16 08:42:56;;;;;;;64.00;23.90;;;;;;;-1.22;100.00;99836.83;103556;1302;24186;-26
2022/01/16 08:45:22;;;;;;;72.00;27.80;;;;;;;-0.78;100.00;99829.23;103551;1300;24226;-28
2022/01/16 08:47:48;;;;;;;83.60;30.80;;;;;;;-0.39;100.00;99823.27;103630;1300;24294;-26
2022/01/16 08:50:15;;;;;;;89.40;29.70;;;;;;;-0.06;100.00;99821.44;103569;1300;24186;-27
2022/01/16 08:52:41;;;;;;;75.40;31.70;;;;;;;0.16;99.93;99818.35;103557;1300;24176;-29
2022/01/16 08:55:08;;;;;;;72.80;27.10;;;;;;;0.19;99.08;99811.61;103607;1300;24318;-26
2022/01/16 08:57:34;;;;;;;83.00;33.50;;;;;;;0.37;96.98;99807.70;103635;1300;22509;-29
2022/01/16 09:00:00;;;;;;;69.70;24.80;;;;;;;0.44;97.39;99805.08;103648;1300;24320;-29
2022/01/16 09:02:25;;;;;;;87.40;30.50;;;;;;;0.83;98.57;99799.09;103565;1299;24855;-28
2022/01/16 09:04:51;;;;;;;82.70;28.60;;;;;;;1.18;98.71;99791.83;103640;1300;24340;-25
2022/01/16 09:07:17;;;;;;;61.10;29.40;;;;;;;1.37;94.44;99795.77;103573;1300;24338;-25
2022/01/16 09:09:43;;;;;;;71.90;28.90;;;;;;;1.11;95.02;99800.49;103574;1300;24486;-27
2022/01/16 09:12:10;;;;;;;82.90;26.50;;;;;;;1.14;96.18;99799.27;103656;1300;24214;-29
2022/01/16 09:14:36;;;;;;;81.90;28.00;;;;;;;1.22;95.90;99797.32;103561;1300;24249;-26
2022/01/16 09:17:02;;;;;;;64.30;26.40;;;;;;;1.22;94.22;99801.70;103576;1300;24311;-26
2022/01/16 09:19:29;;;;;;;61.80;27.60;;;;;;;1.29;95.11;99803.42;103552;1300;24286;-25
2022/01/16 09:21:56;;;;;;;64.00;24.40;;;;;;;1.23;95.02;99799.20;103608;1300;22912;-29
2022/01/16 09:24:22;;;;;;;58.00;25.90;;;;;;;1.29;96.14;99796.59;103633;1300;24094;-26
2022/01/16 09:26:49;;;;;;;77.10;27.20;;;;;;;1.50;97.39;99790.55;103528;1300;24373;-29
2022/01/16 09:29:15;;;;;;;72.00;26.40;;;;;;;1.72;95.82;99793.27;103592;1300;24174;-26
2022/01/16 09:31:42;;;;;;;52.70;24.90;;;;;;;1.82;94.72;99791.58;103532;1300;24297;-29
2022/01/16 09:34:08;;;;;;;67.00;24.60;;;;;;;1.89;94.44;99787.05;103566;1302;22750;-26
2022/01/16 09:36:34;;;;;;;54.90;21.40;;;;;;;1.86;93.49;99785.52;103636;1300;24313;-25
2022/01/16 09:39:00;;;;;;;58.50;23.60;;;;;;;1.88;93.58;99780.45;103524;1300;24223;-25
2022/01/16 09:41:26;;;;;;;65.80;27.20;;;;;;;1.90;94.15;99778.70;103544;1300;24174;-26
2022/01/16 09:43:52;;;;;;;48.70;20.70;;;;;;;2.03;95.07;99777.56;103499;1300;24200;-26
2022/01/16 09:46:18;;;;;;;49.00;23.10;;;;;;;2.23;93.96;99775.95;103491;1300;22638;-31
2022/01/16 09:48:44;;;;;;;59.70;22.30;;;;;;;2.37;92.88;99772.84;103571;1300;22687;-27
2022/01/16 09:51:10;;;;;;;59.80;24.30;;;;;;;2.44;93.28;99766.55;103622;1300;24226;-25
2022/01/16 09:53:36;;;;;;;65.60;24.80;;;;;;;2.59;93.88;99767.89;103514;1300;24452;-25
2022/01/16 09:56:02;;;;;;;42.20;19.80;;;;;;;2.94;93.84;99758.88;103505;1300;24254;-25
2022/01/16 09:58:28;;;;;;;52.90;23.70;;;;;;;3.17;93.67;99758.05;103535;1300;24224;-25
2022/01/16 10:00:54;;;;;;;58.70;26.20;;;;;;;3.19;93.47;99755.42;103456;1300;22758;-25
2022/01/16 10:03:26;;;;;;;71.60;25.10;;;;;;;3.22;92.70;99751.75;103552;1300;24217;-29
2022/01/16 10:06:06;;;;;;;58.40;21.60;;;;;;;3.42;93.41;99747.33;103585;1300;24046;-29
2022/01/16 10:08:32;;;;;;;56.50;23.60;;;;;;;3.43;89.96;99748.64;103581;1300;24348;-29
2022/01/16 10:10:59;;;;;;;38.60;20.20;;;;;;;3.62;90.69;99746.14;103559;1300;22839;-26
2022/01/16 10:13:36;;;;;;;45.50;22.90;;;;;;;3.68;90.92;99747.52;103536;1300;24217;-29
2022/01/16 10:16:02;;;;;;;25.40;14.70;;;;;;;3.34;87.58;99742.16;103541;1302;24179;-26
2022/01/16 10:18:33;;;;;;;49.10;19.70;;;;;;;3.50;89.55;99741.19;103574;1300;24327;-26
2022/01/16 10:20:59;;;;;;;47.90;17.90;;;;;;;3.59;89.57;99742.14;103487;1300;22518;-29
2022/01/16 10:23:25;;;;;;;39.10;18.40;;;;;;;3.76;88.18;99739.54;103459;1300;24197;-25
2022/01/16 10:25:51;;;;;;;39.50;17.10;;;;;;;3.93;85.97;99736.67;103592;1300;24186;-29
2022/01/16 10:28:19;;;;;;;33.70;16.80;;;;;;;4.02;81.72;99738.98;103539;1300;24262;-29
2022/01/16 10:30:47;;;;;;;30.40;16.20;;;;;;;3.59;83.04;99738.95;103565;1300;24181;-29
2022/01/16 10:33:17;;;;;;;40.10;18.20;;;;;;;3.32;81.55;99735.58;103563;1300;24206;-29
2022/01/16 10:35:44;;;;;;;41.10;18.10;;;;;;;3.06;82.24;99735.20;103575;1300;22670;-29
2022/01/16 10:38:11;;;;;;;32.10;14.80;;;;;;;3.30;82.66;99734.37;103437;1300;24292;-29
2022/01/16 10:40:39;;;;;;;38.70;18.60;;;;;;;3.42;78.53;99733.59;103608;1300;24205;-25
2022/01/16 10:43:13;;;;;;;46.60;18.50;;;;;;;3.34;77.02;99732.46;103567;1300;24397;-29
2022/01/16 10:45:40;;;;;;;36.00;18.70;;;;;;;2.99;77.65;99734.19;103501;1300;24147;-26
2022/01/16 10:48:06;;;;;;;48.20;19.50;;;;;;;3.08;76.23;99731.46;103626;1300;24447;-29
2022/01/16 10:50:34;;;;;;;38.90;18.00;;;;;;;2.95;76.82;99730.70;103643;1300;24218;-26
2022/01/16 10:53:04;;;;;;;42.50;19.00;;;;;;;2.76;78.76;99730.61;103600;1300;24363;-26
2022/01/16 10:55:34;;;;;;;44.20;19.90;;;;;;;2.94;81.19;99732.23;103627;1300;24232;-30
2022/01/16 10:58:04;;;;;;;62.90;24.10;;;;;;;3.48;80.15;99724.74;103642;1300;22518;-29
2022/01/16 11:00:30;;;;;;;45.70;20.50;;;;;;;3.54;79.59;99723.98;103610;1300;24234;-29
2022/01/16 11:02:59;;;;;;;52.20;23.00;;;;;;;3.79;80.52;99719.68;103578;1302;24233;-26
2022/01/16 11:05:27;;;;;;;45.80;21.00;;;;;;;3.92;80.77;99715.87;103560;1300;24220;-26
2022/01/16 11:07:57;;;;;;;49.10;23.60;;;;;;;4.41;79.66;99709.02;103542;1300;24225;-26
2022/01/16 11:10:26;;;;;;;35.90;17.30;;;;;;;4.34;78.15;99700.48;103605;1300;24196;-30
2022/01/16 11:12:54;;;;;;;59.30;21.90;;;;;;;4.36;78.36;99697.20;103569;1300;24229;-27
2022/01/16 11:15:20;;;;;;;58.60;24.10;;;;;;;4.41;79.12;99689.77;103656;1302;24442;-26
2022/01/16 11:17:46;;;;;;;51.20;22.00;;;;;;;4.50;78.15;99689.83;103567;1300;22513;-25
2022/01/16 11:20:12;;;;;;;48.00;22.60;;;;;;;4.33;77.49;99685.36;103604;1297;24273;-26
2022/01/16 11:22:57;;;;;;;50.80;24.70;;;;;;;4.13;78.26;99685.77;103570;1300;22518;-26
2022/01/16 11:25:31;;;;;;;56.60;21.20;;;;;;;4.19;79.08;99681.69;103535;1300;24321;-29
2022/01/16 11:28:00;;;;;;;52.50;21.30;;;;;;;4.28;77.86;99678.70;103524;1300;24408;-29
2022/01/16 11:30:27;;;;;;;201.50;96.90;;;;;;;4.09;78.89;99681.44;103637;1300;24352;-27
2022/01/16 11:32:53;;;;;;;102.40;30.80;;;;;;;4.13;80.62;99673.58;103576;1300;24393;-29
2022/01/16 11:35:19;;;;;;;70.80;27.70;;;;;;;4.25;80.48;99671.16;103560;1299;24293;-30
2022/01/16 11:37:45;;;;;;;48.90;24.00;;;;;;;4.37;80.00;99666.27;103463;1300;24192;-26
2022/01/16 11:40:18;;;;;;;93.20;31.10;;;;;;;4.39;80.31;99665.59;103471;1300;24270;-29
2022/01/16 11:42:43;;;;;;;70.40;25.10;;;;;;;4.54;80.97;99661.05;103567;1300;23954;-25